• Join FlightAware (Why Join?)
  • Login
  • US Flag 
12:40PM EDT


 

Airport Tracker/Info


-or-


 

Live Flight TrackerFlight Track Log ✈ FSR411 ✈ 26-Nov-2013 ✈ KCMI - KBOS

Flight Track Log - Related Links

Times and Time Zones

All times are in EST time to prevent confusion due to time zone crossing. See the FSR411 flight status page for this flight to view local times or setup timezone preferences in your user account.

Time Position Orientation Groundspeed Altitude Reporting Facility
EST Latitude Longitude Course Direction KTS MPH feet Rate Location/Type
05:27PM 40.0925 -88.2908 73° East 190 219 41,000  Level Chicago Center
05:28PM 40.1122 -88.2086 73° East 227 261 6,600 -15,360 Descending Chicago Center
05:29PM 40.1336 -88.1167 73° East 245 282 9,300 2,580 Climbing Chicago Center
05:30PM 40.1583 -88.0047 74° East 288 331 12,000 2,940 Climbing Chicago Center
05:31PM 40.1892 -87.8761 73° East 341 392 15,400 3,180 Climbing Chicago Center
05:31PM 40.2056 -87.7944 75° East 378 435 17,400 2,940 Climbing Indianapolis Center
05:32PM 40.2394 -87.6467 73° East 409 471 20,400 2,880 Climbing Indianapolis Center
05:33PM 40.2806 -87.4583 74° East 440 506 23,400 2,460 Climbing Indianapolis Center
05:34PM 40.3175 -87.2919 74° East 467 537 25,600 2,460 Climbing Indianapolis Center
05:35PM 40.3539 -87.1250 74° East 476 548 28,600 2,280 Climbing Indianapolis Center
05:36PM 40.3900 -86.9589 74° East 474 545 30,400 1,560 Climbing Indianapolis Center
05:37PM 40.4275 -86.7853 74° East 489 563 31,900 1,200 Climbing Indianapolis Center
05:39PM 40.4653 -86.6083 74° East 501 577 33,000 1,020 Climbing Indianapolis Center
05:40PM 40.5111 -86.3875 75° East 518 596 34,100 1,140 Climbing Indianapolis Center
05:41PM 40.5514 -86.2000 74° East 530 610 35,400 1,380 Climbing Indianapolis Center
05:42PM 40.5892 -86.0144 75° East 526 605 37,000 720 Climbing Indianapolis Center
05:43PM 40.6275 -85.8281 75° East 527 606 37,000 360 Level Indianapolis Center
05:44PM 40.6667 -85.6372 75° East 536 617 37,800 1,080 Climbing Indianapolis Center
05:45PM 40.7036 -85.4517 75° East 530 610 39,300 1,200 Climbing Indianapolis Center
05:46PM 40.7472 -85.2358 75° East 512 589 40,400 600 Climbing Indianapolis Center
05:47PM 40.8050 -84.9442 75° East 513 590 41,000 180 Climbing Chicago Center
05:48PM 40.8411 -84.7592 75° East 517 595 41,000  Level Chicago Center
05:49PM 40.8772 -84.5700 76° East 524 603 41,000  Level Chicago Center
05:51PM 40.9139 -84.3800 76° East 532 612 41,000  Level Chicago Center
05:52PM 40.9569 -84.1525 76° East 534 615 41,000  Level Chicago Center
05:53PM 40.9978 -83.9642 74° East 535 616 41,000  Level Chicago Center
05:54PM 41.0403 -83.7756 73° East 537 618 41,000  Level Chicago Center
05:55PM 41.0828 -83.5864 73° East 538 619 41,000  Level Chicago Center
05:56PM 41.1258 -83.3869 74° East 540 621 41,000  Level Cleveland Center
05:57PM 41.1753 -83.1586 74° East 540 621 41,000  Level Cleveland Center
05:58PM 41.2131 -82.9783 74° East 543 625 41,000  Level Cleveland Center
05:59PM 41.2550 -82.7828 74° East 545 627 41,000  Level Cleveland Center
06:00PM 41.3017 -82.5536 75° East 546 628 41,000  Level Cleveland Center
06:01PM 41.3428 -82.3569 74° East 548 631 41,000  Level Cleveland Center
06:02PM 41.3831 -82.1569 75° East 550 633 41,000  Level Cleveland Center
06:03PM 41.4231 -81.9592 75° East 548 631 41,000  Level Cleveland Center
06:04PM 41.4639 -81.7581 75° East 548 631 41,000  Level Cleveland Center
06:05PM 41.5033 -81.5569 75° East 546 628 41,000  Level Cleveland Center
06:06PM 41.5425 -81.3578 75° East 545 627 41,000  Level Cleveland Center
06:07PM 41.5819 -81.1575 75° East 549 632 41,000  Level Cleveland Center
06:08PM 41.6203 -80.9575 76° East 549 632 41,000  Level Cleveland Center
06:09PM 41.6594 -80.7561 75° East 553 636 41,000  Level Cleveland Center
06:10PM 41.7047 -80.5183 76° East 559 643 41,000  Level Cleveland Center
06:11PM 41.7433 -80.3122 76° East 566 651 41,000  Level Cleveland Center
06:12PM 41.7817 -80.1047 76° East 570 656 41,000  Level Cleveland Center
06:13PM 41.8194 -79.8969 76° East 569 655 41,000  Level Cleveland Center
06:14PM 41.8564 -79.6872 77° East 573 659 41,000  Level Cleveland Center
06:15PM 41.8917 -79.4903 76° East 568 654 41,000  Level Cleveland Center
06:16PM 41.9350 -79.2425 77° East 567 652 41,000  Level Cleveland Center
06:17PM 41.9703 -79.0361 77° East 568 654 41,000  Level Cleveland Center
06:19PM 42.0061 -78.8258 77° East 576 663 41,000  Level Cleveland Center
06:20PM 42.0425 -78.6164 77° East 575 662 41,000  Level Cleveland Center
06:21PM 42.0775 -78.4053 77° East 577 664 41,000  Level Cleveland Center
06:22PM 42.1244 -78.1606 75° East 581 669 41,000  Level Cleveland Center
06:23PM 42.1814 -77.9561 69° East 587 676 41,000  Level Cleveland Center
06:24PM 42.2378 -77.7500 70° East 590 679 41,000  Level Cleveland Center
06:25PM 42.2928 -77.5422 70° East 595 685 41,000  Level Cleveland Center
06:26PM 42.3578 -77.2936 70° East 595 685 41,000  Level Cleveland Center
06:27PM 42.3836 -77.0786 81° East 588 677 41,000  Level Cleveland Center
06:28PM 42.4108 -76.8619 80° East 589 678 41,000  Level Cleveland Center
06:29PM 42.4281 -76.7333 80° East 589 678 41,000  Level Boston Center
06:30PM 42.4542 -76.5150 81° East 590 679 41,000  Level Boston Center
06:31PM 42.4867 -76.2531 80° East 590 679 41,000  Level Boston Center
06:32PM 42.5089 -76.0547 81° East 591 680 41,000  Level Boston Center
06:33PM 42.5350 -75.8336 81° East 595 685 41,000  Level Boston Center
06:34PM 42.5592 -75.6156 81° East 592 681 41,000  Level Boston Center
06:35PM 42.5894 -75.3522 81° East 594 684 41,000  Level Boston Center
06:36PM 42.6122 -75.1308 82° East 597 687 41,000  Level Boston Center
06:37PM 42.6364 -74.9094 81° East 599 689 41,000  Level Boston Center
06:38PM 42.6594 -74.6892 82° East 594 684 41,000  Level Boston Center
06:39PM 42.6675 -74.4692 87° East 587 676 41,000 -300 Level Boston Center
06:40PM 42.6569 -74.2511 94° East 580 667 40,400 -840 Descending Boston Center
06:41PM 42.6475 -74.0314 93° East 567 652 39,300 -2,220 Descending Boston Center
06:42PM 42.6361 -73.7808 93° East 556 640 36,000 -3,120 Descending Boston Center
06:43PM 42.6267 -73.5706 93° East 557 641 33,100 -2,760 Descending Boston Center
06:44PM 42.6169 -73.3572 93° East 564 649 30,400 -2,640 Descending Boston Center
06:45PM 42.6072 -73.1447 93° East 559 643 27,700 -2,460 Descending Boston Center
06:46PM 42.5981 -72.9433 93° East 554 638 25,400 -1,800 Descending Boston Center
06:47PM 42.5856 -72.7472 95° East 522 601 24,000 -1,680 Descending Boston Center
06:48PM 42.5761 -72.5614 94° East 500 575 22,000 -2,220 Descending Boston Center
06:49PM 42.5636 -72.3467 94° East 479 551 19,500 -2,220 Descending Boston Center
06:50PM 42.5542 -72.1675 94° East 461 531 17,500 -2,100 Descending Boston Center
06:51PM 42.5442 -72.0111 95° East 416 479 15,200 -2,160 Descending Boston Center
06:52PM 42.5294 -71.8708 98° East 379 436 13,200 -1,800 Descending Boston Center
06:53PM 42.5169 -71.7286 97° East 355 409 11,600 -1,080 Descending Boston Center
06:54PM 42.5000 -71.6167 102° East 305 351 11,000 -960 Descending KA90
06:55PM 42.5000 -71.5000 90° East 275 316 9,700 -1,020 Descending KA90
06:56PM 42.4833 -71.4000 103° East 270 311 9,000 -720 Descending KA90
06:57PM 42.4667 -71.3000 103° East 256 295 8,300 -900 Descending KA90
06:58PM 42.4000 -71.2333 144° Southeast 251 289 7,200 -1,080 Descending KA90
06:59PM 42.3833 -71.1500 105° East 246 283 6,300 -660 Descending KA90
07:00PM 42.4167 -71.0833 56° Northeast 264 304 6,000 -180 Descending KA90
07:01PM 42.5000 -71.0500 16° North 243 280 6,000 -660 Level KA90
07:02PM 42.5500 -71.0333 14° North 232 267 4,800 -1,140 Descending KA90
07:03PM 42.6000 -71.0167 14° North 230 265 4,100 -420 Descending KA90
07:04PM 42.6667 -70.9833 20° North 219 252 4,000 -60 Descending KA90
07:05PM 42.7167 -70.9667 14° North 225 259 4,000  Level KA90
07:06PM 42.7333 -70.9000 71° East 216 249 4,000  Level KA90
07:07PM 42.7167 -70.8667 124° Southeast 186 214 4,000  Level KA90
07:08PM 42.6814 -70.8553 167° South 185 213 4,000  Level Boston Center
07:09PM 42.6367 -70.8739 197° South 170 196 4,000  Level Boston Center
07:09PM 42.6000 -70.8833 191° South 165 190 4,000  Level KA90
07:10PM 42.5667 -70.9000 200° South 170 196 4,000 -420 Level KA90
07:11PM 42.5167 -70.9333 206° Southwest 172 198 3,300 -900 Descending KA90
07:12PM 42.4833 -70.9500 200° South 169 194 2,400 -960 Descending KA90
07:13PM 42.4333 -70.9667 194° South 162 186 1,400 -840 Descending KA90